ADDS METAR Data INFO
IDs: Format: Raw Decoded Include TAF

Data at: 0844 UTC 22 Feb 2018

KELD 220834Z AUTO 09004KT 10SM OVC005 08/08 A3023 RMK AO2 LTG DSNT SE RAE04 P0000 T00780078 $
KELD 220821Z AUTO VRB04KT 10SM OVC004 08/08 A3023 RMK AO2 LTG DSNT SE RAE04 P0000 T00780078 $
KELD 220753Z AUTO 09005KT 10SM -RA BKN006 BKN070 OVC090 08/08 A3022 RMK AO2 LTG DSNT SE AND S SLP231 P0004 T00780078 $
KELD 220747Z AUTO 08007KT 10SM -RA BKN006 BKN070 OVC095 08/08 A3021 RMK AO2 LTG DSNT S P0004 $
KELD 220731Z AUTO 12010KT 10SM -RA FEW009 SCT065 OVC075 08/08 A3023 RMK AO2 P0004 T00780078 $
KELD 220712Z AUTO 08008KT 8SM VCTS -RA FEW050 SCT070 OVC095 08/08 A3022 RMK AO2 P0002 T00780078 $
KELD 220702Z AUTO VRB05KT 10SM -RA FEW070 OVC090 08/08 A3024 RMK AO2 PRESRR P0000 T00780078 $
KELD 220653Z AUTO 08007KT 10SM VCTS -RA OVC090 08/08 A3023 RMK AO2 LTG DSNT S RAB0559E29B46 SLP237 P0009 T00780078 $
KELD 220625Z AUTO 07012KT 10SM -RA FEW010 SCT026 OVC095 08/08 A3022 RMK AO2 LTG DSNT E-SW RAB0559 P0009 T00780078 $
KELD 220615Z AUTO 07014KT 7SM -RA SCT010 BKN027 OVC100 07/07 A3024 RMK AO2 LTG DSNT NE AND E AND SW RAB0559 PRESFR P0009 T00720072 $
KELD 220553Z AUTO 04008KT 10SM OVC010 08/08 A3029 RMK AO2 LTG DSNT NE AND SE RAE43 SLP256 P0005 60086 T00780078 10128 20078 402220078 53009 $
KELD 220518Z AUTO 02008G16KT 5SM +RA BR BKN010 OVC028 08/08 A3027 RMK AO2 LTG DSNT S P0005 T00780078 $
KELD 220453Z AUTO 36013G20KT 10SM -RA OVC009 08/08 A3026 RMK AO2 LTG DSNT SE RAE05B26 CIG 006V014 SLP246 P0000 T00830083 $
KELD 220415Z AUTO 36010KT 10SM BKN007 OVC011 09/09 A3026 RMK AO2 LTG DSNT S AND W RAE05 CIG 005V009 P0000 T00940094 $
KELD 220353Z AUTO 36011KT 9SM -RA BKN010 OVC013 09/09 A3027 RMK AO2 LTG DSNT SE TSB33E48 SLP249 P0014 T00940094 $
KELD 212353Z AUTO 07020G27KT 6SM RA BR BKN009 BKN038 OVC070 12/12 A3013 RMK AO2 PK WND 07027/2352 RAB17 SLP202 P0033 60147 T01220122 10128 20117 $
KELD 212351Z AUTO 08017G26KT 6SM +RA BR BKN009 BKN021 OVC038 12/12 A3013 RMK AO2 PK WND 05026/2351 RAB17 P0032 $
KELD 212300Z AUTO 06014G17KT 2 1/2SM +RA BR BKN009 OVC012 12/12 A3018 RMK AO2 P0005 T01170117 $
KELD 212253Z AUTO 05008KT 3SM +RA BR OVC009 12/12 A3019 RMK AO2 PK WND 07027/2157 CIG 006V012 SLP223 P0018 T01170117 $
KELD 212240Z AUTO 05011KT 4SM +RA BR BKN009 OVC012 12/12 A3019 RMK AO2 PK WND 07027/2157 P0010 T01170117 $
KELD 212225Z AUTO 06017G25KT 5SM +RA BR BKN011 BKN035 OVC070 12/12 A3019 RMK AO2 PK WND 07027/2157 PRESRR P0005 T01170117 $
KELD 212153Z AUTO 05022G33KT 5SM -RA BR SCT055 BKN070 BKN100 12/12 A3015 RMK AO2 PK WND 06033/2136 SLP208 P0030 T01170117 $
KELD 212119Z AUTO 06021G27KT 2 1/2SM +RA BR FEW006 OVC050 12/12 A3020 RMK AO2 PK WND 05027/2119 PRESFR P0014 T01170117 $
KELD 212107Z AUTO 05015G22KT 4SM RA BR FEW006 BKN050 OVC070 12/12 A3021 RMK AO2 P0006 T01170117 $
KELD 212053Z AUTO 03013G21KT 3SM +RA BR BKN050 OVC065 12/12 A3022 RMK AO2 PRESFR SLP232 P0036 60066 T01170117 58007 $
KELD 212034Z AUTO 03013G18KT 3SM +RA BR FEW008 BKN045 OVC055 12/12 A3025 RMK AO2 P0026 T01170117 $
KELD 212020Z AUTO 02007KT 2 1/2SM +RA BR SCT010 BKN042 OVC049 12/12 A3025 RMK AO2 P0018 T01170117 $
KELD 211958Z AUTO 03013G21KT 4SM RA BR SCT009 OVC048 12/12 A3024 RMK AO2 P0003 T01220122 $
KELD 211949Z AUTO 01010G16KT 5SM RA BR BKN009 BKN015 OVC048 12/12 A3023 RMK AO2 SLP234 P0014 T01220122 $
KELD 211948Z AUTO 01010G18KT 5SM RA BR BKN009 BKN015 OVC048 12/12 A3023 RMK AO2 P0013 $
KELD 211936Z AUTO 03013G21KT 10SM -RA SCT009 OVC048 12/12 A3023 RMK AO2 P0010 T01220122 $
KELD 211915Z AUTO 03013G22KT 5SM RA BR BKN008 BKN037 OVC050 12/12 A3022 RMK AO2 P0007 T01220122 $
KELD 211900Z AUTO 02012G18KT 4SM RA BR BKN010 OVC038 12/12 A3022 RMK AO2 PRESFR P0002 T01220122 $
KELD 211853Z AUTO 02012G20KT 4SM +RA BR BKN008 OVC012 13/13 A3024 RMK AO2 SLP239 P0016 T01280128 $
KELD 211753Z AUTO 05014G25KT 7SM RA BKN012 OVC060 13/13 A3025 RMK AO2 PK WND 07026/1736 SLP241 P0005 60117 T01330133 10144 20133 56014 $
KELD 211653Z AUTO 03013G20KT 6SM -RA BR FEW007 BKN010 OVC055 14/14 A3026 RMK AO2 PK WND 03026/1614 SLP245 P0012 T01390139 $
KELD 211651Z AUTO 03013G20KT 6SM RA BR BKN010 BKN028 OVC055 14/14 A3026 RMK AO2 PK WND 03026/1614 P0012 $
KELD 211650Z AUTO 03012G16KT 6SM RA BR BKN008 BKN028 OVC055 14/14 A3027 RMK AO2 PK WND 03026/1614 P0011 $
KELD 211644Z AUTO 02013G23KT 6SM RA BR SCT008 BKN029 OVC060 14/14 A3026 RMK AO2 PK WND 03026/1614 P0011 T01390139 $
KELD 211620Z AUTO 03011G26KT 8SM -RA FEW008 BKN060 OVC075 14/14 A3026 RMK AO2 PK WND 03026/1614 P0006 T01390139 $
KELD 211608Z AUTO 03014G22KT 4SM RA BR 14/14 A3026 RMK AO2 PRESFR P0005 T01390139 $
KELD 211553Z AUTO 03013KT 2 1/2SM +RA BR 14/14 A3029 RMK AO2 LTG DSNT E RAB45 TSE1458B04E19 SLP255 P0030 T01390139 $
KELD 211538Z AUTO 02009G15KT 2SM +RA BR BKN007 BKN015 OVC042 14/14 A3029 RMK AO2 TSE1458B04E19 P0025 T01390139 $
KELD 211525Z AUTO 02009KT 1 3/4SM +RA BR SCT007 BKN012 OVC042 14/14 A3029 RMK AO2 LTG DSNT N-E TSE1458B04E19 P0018 T01390139 $
KELD 211521Z AUTO 01011KT 2SM +RA BR SCT007 BKN019 OVC046 14/14 A3029 RMK AO2 LTG DSNT N-E TSE1458B04E19 P0013 T01390139 $
KELD 211519Z AUTO 01011G16KT 1 3/4SM +RA BR FEW007 BKN014 OVC040 14/14 A3029 RMK AO2 LTG DSNT E TSE1458B04E19 P0011 T01390139 $
KELD 211516Z AUTO 01009G16KT 1 3/4SM +TSRA BR FEW007 BKN016 OVC038 14/14 A3029 RMK AO2 LTG DSNT E AND S AND W TSE1458B04 PRESRR P0009 T01390139 $
KELD 211510Z AUTO 01009G19KT 2 1/2SM +TSRA BR FEW008 SCT013 OVC038 14/14 A3028 RMK AO2 LTG DSNT E AND S AND W TSE1458B04 P0005 T01390139 $
KELD 211453Z AUTO 02011G18KT 5SM TSRA BR SCT011 OVC036 14/14 A3026 RMK AO2 LTG DSNT S-W TSB43 SLP246 P0014 60070 T01390139 53035 $
KELD 211443Z AUTO 03012KT 5SM -TSRA BR BKN010 OVC036 14/14 A3026 RMK AO2 LTG DSNT SW-N TSB43 P0013 T01390139 $
KELD 211418Z AUTO 02013G18KT 3SM RA BR FEW008 OVC039 14/14 A3023 RMK AO2 LTG DSNT SW P0010 T01390139 $
KELD 211414Z AUTO 01011G19KT 2SM +RA BR FEW010 BKN039 OVC050 14/14 A3023 RMK AO2 LTG DSNT SW P0009 T01390139 $
KELD 211406Z AUTO 03014G24KT 3SM RA BR SCT010 BKN039 OVC055 14/14 A3022 RMK AO2 LTG DSNT SW P0005 T01390139 $
KELD 211353Z AUTO 03010G19KT 4SM RA BR BKN010 BKN014 OVC039 14/14 A3022 RMK AO2 TSB22E37 CIG 007V013 SLP232 P0015 T01390139 $
KELD 211337Z AUTO 04009KT 8SM -RA BKN010 OVC035 14/14 A3022 RMK AO2 TSB22E37 CIG 008V014 P0009 T01440144 $
KELD 211328Z AUTO 04008G18KT 9SM -TSRA SCT010 OVC035 14/14 A3021 RMK AO2 TSB22 P0008 T01440144 $
KELD 211253Z AUTO 02009KT 6SM RA BR FEW009 SCT015 OVC033 14/14 A3020 RMK AO2 TSB18E33 SLP225 P0041 T01440144 $
KELD 211239Z AUTO 01011G19KT 3SM +RA BR FEW009 BKN029 OVC037 14/14 A3020 RMK AO2 TSB18E33 P0037 T01440144 $
KELD 211231Z AUTO 01013G19KT 3SM TSRA BR FEW009 BKN027 OVC035 14/14 A3020 RMK AO2 TSB18 P0031 T01440144 $
KELD 210753Z AUTO 17007KT 10SM SCT022 SCT027 OVC045 22/21 A3009 RMK AO2 SLP186 T02220206 $
KELD 210727Z AUTO 17009KT 10SM SCT023 SCT028 OVC042 22/21 A3010 RMK AO2 T02220206 $
KELD 210653Z AUTO 17008KT 10SM BKN023 BKN030 OVC038 22/21 A3009 RMK AO2 SLP186 T02220206 $
KELD 210650Z AUTO 17008G16KT 10SM SCT023 BKN030 OVC036 22/21 A3009 RMK AO2 $
KELD 210616Z AUTO 17009KT 10SM SCT023 BKN028 22/21 A3008 RMK AO2 T02220206 $
KELD 210553Z AUTO 17009KT 10SM CLR 22/21 A3007 RMK AO2 SLP180 60005 T02220206 10250 20217 402720189 53013 $